Raleigh County Memorial Airport
KBKW : now visible

Airfield :











YOU CAN JOIN US ON...

 
LOGIN :

Register | Disclaimer

   EN    FR    IT 

 









Legend :    VFR   Marginal VFR   IFR   Intensive IFR   Very Intensive IFR
Visi :
Ceiling :
>= 8 km
>= 3000ft
5 to 8 km
1000 to 3000 ft
1500m to 5 km
500 to 1000 ft
800 to 1500m
200 to 500 ft
< 800m
< 200 ft
Symbols :   Thunderstorms  Fog  Heavy snow  Heavy precipitations  Wind > 20 kt






- Airport Elevation : 2504 ft
- IATA code : BKW


KBKW - Raleigh County Memorial

CURRENT METAR :
  • 011751Z AUTO 30007KT 10SM OVC008 04/02 A2990 RMK AO2 SLP140 60000 T00440022 10050 20028 51007

EXPIRED METARs :
  • 011651Z AUTO 30009KT 7SM OVC006 03/02 A2989 RMK AO2 RAE39 SLP141 P0000 T00330022
  • 011601Z AUTO 32007KT 6SM -RA BR BKN008 OVC012 03/02 A2989 RMK AO2 P0000 T00330017
  • 011551Z AUTO 30007KT 6SM -RA BR BKN010 OVC014 03/02 A2989 RMK AO2 RAB43 SLP139 P0000 T00330017

TAF KBKW
Valid from the 01 at 18:00 until the 02 at 18:00 UTC


011720Z 0118/0218 33005KT P6SM -SHRA OVC006
FM012000 31005KT P6SM BKN009
FM021000 00000KT P6SM BKN010
FM021400 33005KT P6SM BKN021
FM021600 32006KT P6SM SCT024



MET'MAP, your aeronautical weather chart ! - Copyright ORBIFLY December 2007 - Disclaimer

ORBIFLY MET'MAP TEAM :

Programming & Development : Alexandra Zaïnal
Concept & original design : Baudouin d'Aumeries
Assistance for programming : Marc-Olivier Méhu
Technical & hardware support : Manuel Goepfert

Contact : metmap@orbifly.com




SOURCES & CREDITS :

   NOAA       Earth
Advisory